Ixtepec Airport Ixtepec MX
ICAO: MMIT
IATA: IZT
Category: Medium
Scheduled Services: No

Elevation: 164 ft
TransAlt. 18000 ft.

Airport Communications:
GND:121.7
TWR:118.45

MMIT Zoom In..

Runways:

(A) RW 17 length 7546 ft width 148 ft
---- / hdg 170

(B) RW 35 length 7546 ft width 148 ft
---- / hdg 350

Location; MMIT
Day. 26 / Time. 15.00 Zulu
* Altimeter: 29.88
* Temperature: 33° c. 91.4°f.
* Wind from: 020° Speed 12 kn.
Dewpoint: 23° c.
Visibility: 4 Statute Miles.
Clouds: Clear (manual report).
Conditions: Haze.

MMIT 261500Z 02012KT 4SM HZ SKC 33/23 A2988 RMK TZ CI

Going to: --> -->


Wind From 020°
Speed 12 kn.

 
 
jpsmedia worldairports.se 2020   terms of use